Terminal Aerodrome Forecast
Issued by NWS

Home | Current Version | Previous Version | Text Only | Print | Product List | Glossary On
Versions: 1 2 3 4 5 6 7 8 9 10 11 12 13 14
000
FTUS43 KBIS 271100
TAFDIK
TAF
KDIK 271134Z 2712/2812 26008KT P6SM FEW025 SCT300
     FM271400 26009KT P6SM SCT250
     FM271700 25011KT P6SM SCT120 BKN200
     FM272200 26007KT P6SM SCT060 BKN090 OVC120
     FM280400 29005KT P6SM VCSH OVC025
     FM280700 08006KT 5SM -SN BR OVC015=

USA.gov is the U.S. government's official web portal to all federal, state and local government web resources and services.